sensor_id;sensor_type;location;lat;lon;timestamp;pressure;altitude;pressure_sealevel;temperature;humidity
39681;BME280;26327;42.550;23.120;2023-04-06T08:03:07;92421.22;;;3.20;nan
39681;BME280;26327;42.550;23.120;2023-04-06T08:05:32;92367.09;;;3.13;nan
39681;BME280;26327;42.550;23.120;2023-04-06T08:07:58;92430.31;;;3.50;nan
39681;BME280;26327;42.550;23.120;2023-04-06T08:10:23;92372.09;;;3.33;nan
39681;BME280;26327;42.550;23.120;2023-04-06T08:12:48;92364.00;;;3.45;nan
39681;BME280;26327;42.550;23.120;2023-04-06T08:15:14;92428.56;;;3.94;nan
39681;BME280;26327;42.550;23.120;2023-04-06T08:17:40;92319.03;;;3.24;nan
39681;BME280;26327;42.550;23.120;2023-04-06T08:20:05;92427.91;;;3.92;nan
39681;BME280;26327;42.550;23.120;2023-04-06T08:22:31;92367.31;;;3.38;nan
39681;BME280;26327;42.550;23.120;2023-04-06T08:24:56;92279.47;;;3.08;nan
39681;BME280;26327;42.550;23.120;2023-04-06T08:27:22;92418.03;;;4.05;nan
39681;BME280;26327;42.550;23.120;2023-04-06T08:29:49;92424.19;;;3.87;nan
39681;BME280;26327;42.550;23.120;2023-04-06T08:32:15;92378.88;;;3.86;nan
39681;BME280;26327;42.550;23.120;2023-04-06T08:34:40;92421.44;;;4.40;nan
39681;BME280;26327;42.550;23.120;2023-04-06T08:37:06;92345.53;;;4.02;nan
39681;BME280;26327;42.550;23.120;2023-04-06T08:39:31;92368.13;;;4.66;nan
39681;BME280;26327;42.550;23.120;2023-04-06T08:41:59;92431.44;;;4.93;nan
39681;BME280;26327;42.550;23.120;2023-04-06T08:44:28;92423.97;;;5.32;nan
39681;BME280;26327;42.550;23.120;2023-04-06T08:46:55;92343.69;;;4.70;nan
39681;BME280;26327;42.550;23.120;2023-04-06T08:49:21;92332.06;;;4.50;nan
39681;BME280;26327;42.550;23.120;2023-04-06T08:51:47;92355.00;;;4.86;nan
39681;BME280;26327;42.550;23.120;2023-04-06T08:54:12;92416.78;;;6.48;nan
39681;BME280;26327;42.550;23.120;2023-04-06T08:56:39;92350.19;;;7.51;nan
39681;BME280;26327;42.550;23.120;2023-04-06T08:59:05;92386.34;;;11.45;nan
39681;BME280;26327;42.550;23.120;2023-04-06T09:01:33;92370.50;;;12.92;nan
39681;BME280;26327;42.550;23.120;2023-04-06T09:04:00;92398.28;;;13.69;nan
39681;BME280;26327;42.550;23.120;2023-04-06T09:06:26;92382.75;;;13.49;nan
39681;BME280;26327;42.550;23.120;2023-04-06T09:08:52;92295.91;;;11.67;nan
39681;BME280;26327;42.550;23.120;2023-04-06T09:11:18;92292.13;;;12.03;nan
39681;BME280;26327;42.550;23.120;2023-04-06T09:13:47;92300.34;;;12.00;nan
39681;BME280;26327;42.550;23.120;2023-04-06T09:16:13;92335.75;;;12.40;nan
39681;BME280;26327;42.550;23.120;2023-04-06T09:18:39;92373.75;;;12.74;nan
39681;BME280;26327;42.550;23.120;2023-04-06T09:21:06;92374.81;;;12.47;nan
39681;BME280;26327;42.550;23.120;2023-04-06T09:23:32;92385.38;;;11.53;nan
39681;BME280;26327;42.550;23.120;2023-04-06T09:26:17;92355.91;;;9.88;nan
39681;BME280;26327;42.550;23.120;2023-04-06T09:28:50;92370.63;;;9.38;nan
39681;BME280;26327;42.550;23.120;2023-04-06T09:31:24;92365.44;;;9.17;nan
39681;BME280;26327;42.550;23.120;2023-04-06T09:33:51;92366.41;;;8.50;nan
39681;BME280;26327;42.550;23.120;2023-04-06T09:36:17;92383.34;;;8.23;nan
39681;BME280;26327;42.550;23.120;2023-04-06T09:39:03;92382.00;;;7.75;nan
39681;BME280;26327;42.550;23.120;2023-04-06T09:41:33;92317.31;;;7.00;nan
39681;BME280;26327;42.550;23.120;2023-04-06T09:44:07;92291.38;;;6.93;nan
39681;BME280;26327;42.550;23.120;2023-04-06T09:46:40;92369.22;;;6.82;nan
39681;BME280;26327;42.550;23.120;2023-04-06T09:49:07;92375.75;;;6.70;nan
39681;BME280;26327;42.550;23.120;2023-04-06T09:51:38;92315.16;;;6.18;nan
39681;BME280;26327;42.550;23.120;2023-04-06T09:54:04;92394.00;;;6.68;nan
39681;BME280;26327;42.550;23.120;2023-04-06T09:56:34;92394.28;;;6.26;nan
39681;BME280;26327;42.550;23.120;2023-04-06T09:59:08;92367.56;;;6.03;nan
39681;BME280;26327;42.550;23.120;2023-04-06T10:01:35;92381.13;;;5.72;nan
39681;BME280;26327;42.550;23.120;2023-04-06T10:06:49;92326.03;;;5.57;nan
39681;BME280;26327;42.550;23.120;2023-04-06T10:09:18;92385.00;;;5.68;nan
39681;BME280;26327;42.550;23.120;2023-04-06T10:11:45;92325.59;;;5.21;nan
39681;BME280;26327;42.550;23.120;2023-04-06T10:14:13;92331.22;;;5.24;nan
39681;BME280;26327;42.550;23.120;2023-04-06T10:16:39;92319.63;;;5.12;nan
39681;BME280;26327;42.550;23.120;2023-04-06T10:19:11;92292.25;;;4.87;nan
39681;BME280;26327;42.550;23.120;2023-04-06T10:21:39;92325.25;;;5.16;nan
39681;BME280;26327;42.550;23.120;2023-04-06T10:24:08;92376.94;;;5.38;nan
39681;BME280;26327;42.550;23.120;2023-04-06T10:26:38;92309.63;;;5.01;nan
39681;BME280;26327;42.550;23.120;2023-04-06T10:29:04;92370.16;;;5.62;nan
39681;BME280;26327;42.550;23.120;2023-04-06T10:31:30;92348.63;;;5.30;nan
39681;BME280;26327;42.550;23.120;2023-04-06T10:34:02;92374.53;;;5.37;nan
39681;BME280;26327;42.550;23.120;2023-04-06T10:36:32;92225.75;;;4.25;nan
39681;BME280;26327;42.550;23.120;2023-04-06T10:39:04;92373.84;;;5.19;nan
39681;BME280;26327;42.550;23.120;2023-04-06T10:41:41;92305.25;;;4.61;nan
39681;BME280;26327;42.550;23.120;2023-04-06T10:44:07;92359.03;;;4.88;nan
39681;BME280;26327;42.550;23.120;2023-04-06T10:46:33;92306.41;;;4.24;nan
39681;BME280;26327;42.550;23.120;2023-04-06T10:49:10;92317.91;;;4.38;nan
39681;BME280;26327;42.550;23.120;2023-04-06T10:51:38;92373.16;;;4.76;nan
39681;BME280;26327;42.550;23.120;2023-04-06T10:54:06;92360.38;;;4.58;nan
39681;BME280;26327;42.550;23.120;2023-04-06T10:56:32;92363.41;;;5.12;nan
39681;BME280;26327;42.550;23.120;2023-04-06T10:59:01;92243.56;;;4.19;nan
39681;BME280;26327;42.550;23.120;2023-04-06T11:01:27;92350.50;;;5.04;nan
39681;BME280;26327;42.550;23.120;2023-04-06T11:03:57;92368.53;;;4.96;nan
39681;BME280;26327;42.550;23.120;2023-04-06T11:06:27;92305.69;;;4.48;nan
39681;BME280;26327;42.550;23.120;2023-04-06T11:08:55;92300.75;;;4.63;nan
39681;BME280;26327;42.550;23.120;2023-04-06T11:11:22;92314.34;;;4.31;nan
39681;BME280;26327;42.550;23.120;2023-04-06T11:13:56;92283.84;;;4.52;nan
39681;BME280;26327;42.550;23.120;2023-04-06T11:16:24;92303.97;;;4.65;nan
39681;BME280;26327;42.550;23.120;2023-04-06T11:18:56;92357.94;;;5.31;nan
39681;BME280;26327;42.550;23.120;2023-04-06T11:21:40;92339.75;;;5.41;nan
39681;BME280;26327;42.550;23.120;2023-04-06T11:26:45;92277.59;;;5.36;nan
39681;BME280;26327;42.550;23.120;2023-04-06T11:29:16;92340.53;;;5.90;nan
39681;BME280;26327;42.550;23.120;2023-04-06T11:31:46;92328.31;;;5.52;nan
39681;BME280;26327;42.550;23.120;2023-04-06T11:34:15;92321.22;;;5.54;nan
39681;BME280;26327;42.550;23.120;2023-04-06T11:36:41;92331.16;;;5.97;nan
39681;BME280;26327;42.550;23.120;2023-04-06T11:39:07;92341.13;;;6.17;nan
39681;BME280;26327;42.550;23.120;2023-04-06T11:41:33;92350.22;;;5.72;nan
39681;BME280;26327;42.550;23.120;2023-04-06T11:44:01;92344.38;;;5.78;nan
39681;BME280;26327;42.550;23.120;2023-04-06T11:46:27;92328.72;;;6.04;nan
39681;BME280;26327;42.550;23.120;2023-04-06T11:48:58;92280.88;;;5.93;nan
39681;BME280;26327;42.550;23.120;2023-04-06T11:51:24;92272.53;;;5.83;nan
39681;BME280;26327;42.550;23.120;2023-04-06T11:53:50;92320.19;;;6.43;nan
39681;BME280;26327;42.550;23.120;2023-04-06T11:56:29;92263.47;;;5.87;nan
39681;BME280;26327;42.550;23.120;2023-04-06T11:58:56;92273.03;;;6.26;nan
39681;BME280;26327;42.550;23.120;2023-04-06T12:01:23;92328.09;;;6.80;nan
39681;BME280;26327;42.550;23.120;2023-04-06T12:03:48;92268.25;;;6.77;nan
39681;BME280;26327;42.550;23.120;2023-04-06T12:06:14;92312.38;;;6.90;nan
39681;BME280;26327;42.550;23.120;2023-04-06T12:08:40;92249.88;;;6.10;nan
39681;BME280;26327;42.550;23.120;2023-04-06T12:11:06;92200.50;;;5.90;nan
39681;BME280;26327;42.550;23.120;2023-04-06T12:13:31;92231.19;;;6.08;nan
39681;BME280;26327;42.550;23.120;2023-04-06T12:15:57;92322.56;;;6.52;nan
39681;BME280;26327;42.550;23.120;2023-04-06T12:18:22;92248.81;;;6.35;nan
39681;BME280;26327;42.550;23.120;2023-04-06T12:20:48;92310.47;;;6.84;nan
39681;BME280;26327;42.550;23.120;2023-04-06T12:23:13;92300.78;;;6.86;nan
39681;BME280;26327;42.550;23.120;2023-04-06T12:25:39;92254.41;;;6.08;nan
39681;BME280;26327;42.550;23.120;2023-04-06T12:28:06;92313.91;;;6.99;nan
39681;BME280;26327;42.550;23.120;2023-04-06T12:30:32;92321.25;;;6.87;nan
39681;BME280;26327;42.550;23.120;2023-04-06T12:32:57;92255.53;;;6.05;nan
39681;BME280;26327;42.550;23.120;2023-04-06T12:35:23;92293.97;;;6.31;nan
39681;BME280;26327;42.550;23.120;2023-04-06T12:37:48;92271.59;;;6.23;nan
39681;BME280;26327;42.550;23.120;2023-04-06T12:40:14;92297.69;;;6.59;nan
39681;BME280;26327;42.550;23.120;2023-04-06T12:42:40;92275.00;;;6.78;nan
39681;BME280;26327;42.550;23.120;2023-04-06T12:45:07;92299.16;;;6.85;nan
39681;BME280;26327;42.550;23.120;2023-04-06T12:47:33;92296.81;;;6.75;nan
39681;BME280;26327;42.550;23.120;2023-04-06T12:49:58;92247.66;;;6.38;nan
39681;BME280;26327;42.550;23.120;2023-04-06T12:52:24;92268.75;;;6.41;nan
39681;BME280;26327;42.550;23.120;2023-04-06T12:54:50;92234.69;;;6.15;nan
39681;BME280;26327;42.550;23.120;2023-04-06T12:57:16;92276.84;;;5.99;nan
39681;BME280;26327;42.550;23.120;2023-04-06T12:59:44;92174.94;;;5.64;nan
39681;BME280;26327;42.550;23.120;2023-04-06T13:02:11;92280.63;;;5.72;nan
39681;BME280;26327;42.550;23.120;2023-04-06T13:04:36;92297.66;;;5.81;nan
39681;BME280;26327;42.550;23.120;2023-04-06T13:07:02;92209.22;;;5.09;nan
39681;BME280;26327;42.550;23.120;2023-04-06T13:09:27;92246.22;;;5.32;nan
39681;BME280;26327;42.550;23.120;2023-04-06T13:11:53;92276.50;;;5.22;nan
39681;BME280;26327;42.550;23.120;2023-04-06T13:14:18;92272.44;;;5.44;nan
39681;BME280;26327;42.550;23.120;2023-04-06T13:16:44;92227.03;;;5.43;nan
39681;BME280;26327;42.550;23.120;2023-04-06T13:19:09;92288.28;;;5.88;nan
39681;BME280;26327;42.550;23.120;2023-04-06T13:21:35;92293.06;;;6.16;nan
39681;BME280;26327;42.550;23.120;2023-04-06T13:24:01;92270.75;;;5.92;nan
39681;BME280;26327;42.550;23.120;2023-04-06T13:26:27;92297.94;;;6.03;nan
39681;BME280;26327;42.550;23.120;2023-04-06T13:28:53;92266.91;;;5.63;nan
39681;BME280;26327;42.550;23.120;2023-04-06T13:31:21;92269.28;;;5.97;nan
39681;BME280;26327;42.550;23.120;2023-04-06T13:33:46;92277.69;;;5.67;nan
39681;BME280;26327;42.550;23.120;2023-04-06T13:36:12;92284.66;;;5.50;nan
39681;BME280;26327;42.550;23.120;2023-04-06T13:38:37;92279.47;;;5.66;nan
39681;BME280;26327;42.550;23.120;2023-04-06T13:41:04;92267.91;;;5.54;nan
39681;BME280;26327;42.550;23.120;2023-04-06T13:43:30;92266.66;;;5.10;nan
39681;BME280;26327;42.550;23.120;2023-04-06T13:45:58;92298.06;;;5.29;nan
39681;BME280;26327;42.550;23.120;2023-04-06T13:48:26;92301.13;;;5.25;nan
39681;BME280;26327;42.550;23.120;2023-04-06T13:50:51;92274.91;;;5.21;nan
39681;BME280;26327;42.550;23.120;2023-04-06T13:53:17;92239.16;;;5.02;nan
39681;BME280;26327;42.550;23.120;2023-04-06T13:55:43;92181.75;;;4.61;nan
39681;BME280;26327;42.550;23.120;2023-04-06T13:58:08;92285.44;;;5.59;nan
39681;BME280;26327;42.550;23.120;2023-04-06T14:00:34;92280.31;;;5.51;nan
39681;BME280;26327;42.550;23.120;2023-04-06T14:03:00;92272.09;;;5.55;nan
39681;BME280;26327;42.550;23.120;2023-04-06T14:05:26;92288.97;;;5.66;nan
39681;BME280;26327;42.550;23.120;2023-04-06T14:07:53;92274.22;;;5.44;nan
39681;BME280;26327;42.550;23.120;2023-04-06T14:10:19;92220.16;;;5.19;nan
39681;BME280;26327;42.550;23.120;2023-04-06T14:12:47;92290.09;;;5.80;nan
39681;BME280;26327;42.550;23.120;2023-04-06T14:15:13;92276.34;;;5.32;nan
39681;BME280;26327;42.550;23.120;2023-04-06T14:17:38;92268.59;;;5.40;nan
39681;BME280;26327;42.550;23.120;2023-04-06T14:20:07;92222.84;;;5.42;nan
39681;BME280;26327;42.550;23.120;2023-04-06T14:22:38;92297.00;;;5.95;nan
39681;BME280;26327;42.550;23.120;2023-04-06T14:25:04;92226.41;;;5.33;nan
39681;BME280;26327;42.550;23.120;2023-04-06T14:27:30;92292.56;;;5.49;nan
39681;BME280;26327;42.550;23.120;2023-04-06T14:29:55;92208.56;;;5.31;nan
39681;BME280;26327;42.550;23.120;2023-04-06T14:32:21;92265.75;;;5.90;nan
39681;BME280;26327;42.550;23.120;2023-04-06T14:34:46;92202.97;;;5.03;nan
39681;BME280;26327;42.550;23.120;2023-04-06T14:37:12;92299.03;;;5.36;nan
39681;BME280;26327;42.550;23.120;2023-04-06T14:39:37;92244.31;;;5.02;nan
39681;BME280;26327;42.550;23.120;2023-04-06T14:42:02;92255.56;;;5.01;nan
39681;BME280;26327;42.550;23.120;2023-04-06T14:44:28;92184.00;;;4.56;nan
39681;BME280;26327;42.550;23.120;2023-04-06T14:46:53;92291.94;;;4.98;nan
39681;BME280;26327;42.550;23.120;2023-04-06T14:49:18;92272.63;;;4.78;nan
39681;BME280;26327;42.550;23.120;2023-04-06T14:51:44;92241.28;;;4.74;nan
39681;BME280;26327;42.550;23.120;2023-04-06T14:54:09;92292.75;;;5.15;nan
39681;BME280;26327;42.550;23.120;2023-04-06T14:56:35;92297.56;;;5.10;nan
39681;BME280;26327;42.550;23.120;2023-04-06T14:59:01;92232.72;;;4.65;nan
39681;BME280;26327;42.550;23.120;2023-04-06T15:01:27;92221.31;;;4.84;nan
39681;BME280;26327;42.550;23.120;2023-04-06T15:03:52;92298.41;;;5.26;nan
39681;BME280;26327;42.550;23.120;2023-04-06T15:06:18;92284.38;;;5.13;nan
39681;BME280;26327;42.550;23.120;2023-04-06T15:08:45;92174.09;;;3.86;nan
39681;BME280;26327;42.550;23.120;2023-04-06T15:11:12;92288.72;;;4.88;nan
39681;BME280;26327;42.550;23.120;2023-04-06T15:13:38;92273.75;;;4.83;nan
39681;BME280;26327;42.550;23.120;2023-04-06T15:16:05;92294.84;;;4.95;nan
39681;BME280;26327;42.550;23.120;2023-04-06T15:18:30;92295.47;;;4.97;nan
39681;BME280;26327;42.550;23.120;2023-04-06T15:20:56;92296.59;;;4.86;nan
39681;BME280;26327;42.550;23.120;2023-04-06T15:23:21;92246.31;;;4.25;nan
39681;BME280;26327;42.550;23.120;2023-04-06T15:25:47;92292.19;;;4.38;nan
39681;BME280;26327;42.550;23.120;2023-04-06T15:28:12;92255.28;;;4.05;nan
39681;BME280;26327;42.550;23.120;2023-04-06T15:30:38;92216.50;;;3.48;nan
39681;BME280;26327;42.550;23.120;2023-04-06T15:33:04;92314.75;;;4.18;nan
39681;BME280;26327;42.550;23.120;2023-04-06T15:35:31;92307.13;;;3.92;nan
39681;BME280;26327;42.550;23.120;2023-04-06T15:37:58;92313.56;;;3.96;nan
39681;BME280;26327;42.550;23.120;2023-04-06T15:40:25;92306.19;;;4.01;nan
39681;BME280;26327;42.550;23.120;2023-04-06T15:42:51;92312.63;;;4.05;nan
39681;BME280;26327;42.550;23.120;2023-04-06T15:45:17;92320.78;;;3.93;nan
39681;BME280;26327;42.550;23.120;2023-04-06T15:47:43;92324.63;;;3.97;nan
39681;BME280;26327;42.550;23.120;2023-04-06T15:50:10;92329.00;;;4.04;nan
39681;BME280;26327;42.550;23.120;2023-04-06T15:52:37;92164.28;;;2.79;nan
39681;BME280;26327;42.550;23.120;2023-04-06T15:55:03;92328.41;;;3.51;nan
39681;BME280;26327;42.550;23.120;2023-04-06T15:57:29;92275.59;;;3.30;nan
39681;BME280;26327;42.550;23.120;2023-04-06T15:59:56;92271.47;;;3.63;nan
39681;BME280;26327;42.550;23.120;2023-04-06T16:02:21;92311.16;;;3.69;nan
39681;BME280;26327;42.550;23.120;2023-04-06T16:04:48;92277.53;;;3.54;nan
39681;BME280;26327;42.550;23.120;2023-04-06T16:07:13;92270.16;;;3.59;nan
39681;BME280;26327;42.550;23.120;2023-04-06T16:09:39;92232.44;;;3.00;nan
39681;BME280;26327;42.550;23.120;2023-04-06T16:12:04;92241.34;;;2.70;nan
39681;BME280;26327;42.550;23.120;2023-04-06T16:14:30;92275.34;;;2.90;nan
39681;BME280;26327;42.550;23.120;2023-04-06T16:16:55;92299.91;;;3.18;nan
39681;BME280;26327;42.550;23.120;2023-04-06T16:19:21;92328.66;;;3.22;nan
39681;BME280;26327;42.550;23.120;2023-04-06T16:21:46;92327.75;;;3.05;nan
39681;BME280;26327;42.550;23.120;2023-04-06T16:24:12;92281.84;;;3.02;nan
39681;BME280;26327;42.550;23.120;2023-04-06T16:26:37;92343.44;;;3.45;nan
39681;BME280;26327;42.550;23.120;2023-04-06T16:29:04;92359.16;;;3.42;nan
39681;BME280;26327;42.550;23.120;2023-04-06T16:31:29;92328.00;;;3.37;nan
39681;BME280;26327;42.550;23.120;2023-04-06T16:33:55;92300.09;;;2.99;nan
39681;BME280;26327;42.550;23.120;2023-04-06T16:36:30;92355.94;;;3.40;nan
39681;BME280;26327;42.550;23.120;2023-04-06T16:39:00;92368.47;;;3.43;nan
39681;BME280;26327;42.550;23.120;2023-04-06T16:41:27;92343.13;;;3.05;nan
39681;BME280;26327;42.550;23.120;2023-04-06T16:43:53;92345.97;;;3.20;nan
39681;BME280;26327;42.550;23.120;2023-04-06T16:46:21;92300.84;;;2.91;nan
39681;BME280;26327;42.550;23.120;2023-04-06T16:48:46;92353.53;;;3.21;nan
39681;BME280;26327;42.550;23.120;2023-04-06T16:51:12;92339.78;;;3.04;nan
39681;BME280;26327;42.550;23.120;2023-04-06T16:53:37;92350.97;;;3.21;nan
39681;BME280;26327;42.550;23.120;2023-04-06T16:56:04;92364.81;;;3.46;nan
39681;BME280;26327;42.550;23.120;2023-04-06T16:58:33;92331.53;;;3.36;nan
39681;BME280;26327;42.550;23.120;2023-04-06T17:00:59;92257.53;;;2.70;nan
39681;BME280;26327;42.550;23.120;2023-04-06T17:03:28;92298.78;;;2.95;nan
39681;BME280;26327;42.550;23.120;2023-04-06T17:05:54;92298.13;;;2.93;nan
39681;BME280;26327;42.550;23.120;2023-04-06T17:08:19;92401.00;;;3.35;nan
39681;BME280;26327;42.550;23.120;2023-04-06T17:10:45;92384.69;;;3.26;nan
39681;BME280;26327;42.550;23.120;2023-04-06T17:13:10;92381.41;;;3.16;nan
39681;BME280;26327;42.550;23.120;2023-04-06T17:15:35;92333.47;;;2.99;nan
39681;BME280;26327;42.550;23.120;2023-04-06T17:18:01;92346.88;;;2.93;nan
39681;BME280;26327;42.550;23.120;2023-04-06T17:20:27;92301.38;;;2.59;nan
39681;BME280;26327;42.550;23.120;2023-04-06T17:22:52;92407.06;;;3.16;nan
39681;BME280;26327;42.550;23.120;2023-04-06T17:25:18;92402.75;;;3.16;nan
39681;BME280;26327;42.550;23.120;2023-04-06T17:27:43;92339.16;;;2.57;nan
39681;BME280;26327;42.550;23.120;2023-04-06T17:30:10;92347.97;;;2.72;nan
39681;BME280;26327;42.550;23.120;2023-04-06T17:32:36;92329.34;;;2.52;nan
39681;BME280;26327;42.550;23.120;2023-04-06T17:35:01;92416.25;;;3.01;nan
39681;BME280;26327;42.550;23.120;2023-04-06T17:37:27;92409.44;;;2.92;nan
39681;BME280;26327;42.550;23.120;2023-04-06T17:39:53;92361.75;;;2.71;nan
39681;BME280;26327;42.550;23.120;2023-04-06T17:42:18;92388.91;;;2.46;nan
39681;BME280;26327;42.550;23.120;2023-04-06T17:44:44;92367.38;;;2.57;nan
39681;BME280;26327;42.550;23.120;2023-04-06T17:47:13;92342.38;;;2.41;nan
39681;BME280;26327;42.550;23.120;2023-04-06T17:49:39;92423.81;;;2.75;nan
39681;BME280;26327;42.550;23.120;2023-04-06T17:52:04;92421.63;;;2.80;nan
39681;BME280;26327;42.550;23.120;2023-04-06T17:54:29;92340.34;;;2.45;nan
39681;BME280;26327;42.550;23.120;2023-04-06T17:56:55;92393.78;;;2.67;nan
39681;BME280;26327;42.550;23.120;2023-04-06T17:59:21;92378.66;;;2.46;nan
39681;BME280;26327;42.550;23.120;2023-04-06T18:01:46;92352.63;;;2.41;nan
39681;BME280;26327;42.550;23.120;2023-04-06T18:04:12;92419.78;;;2.72;nan
39681;BME280;26327;42.550;23.120;2023-04-06T18:06:37;92467.44;;;3.02;nan
39681;BME280;26327;42.550;23.120;2023-04-06T18:09:03;92462.22;;;3.12;nan
39681;BME280;26327;42.550;23.120;2023-04-06T18:11:29;92461.13;;;3.14;nan
39681;BME280;26327;42.550;23.120;2023-04-06T18:13:56;92471.66;;;2.94;nan
39681;BME280;26327;42.550;23.120;2023-04-06T18:16:22;92468.53;;;2.72;nan
39681;BME280;26327;42.550;23.120;2023-04-06T18:18:48;92467.53;;;2.83;nan
39681;BME280;26327;42.550;23.120;2023-04-06T18:21:13;92438.75;;;2.62;nan
39681;BME280;26327;42.550;23.120;2023-04-06T18:23:39;92489.06;;;3.00;nan
39681;BME280;26327;42.550;23.120;2023-04-06T18:26:05;92472.84;;;2.72;nan
39681;BME280;26327;42.550;23.120;2023-04-06T18:28:31;92428.75;;;2.41;nan
39681;BME280;26327;42.550;23.120;2023-04-06T18:30:57;92408.78;;;2.35;nan
39681;BME280;26327;42.550;23.120;2023-04-06T18:33:23;92456.84;;;2.88;nan
39681;BME280;26327;42.550;23.120;2023-04-06T18:35:54;92427.13;;;2.67;nan
39681;BME280;26327;42.550;23.120;2023-04-06T18:38:24;92453.22;;;2.80;nan
39681;BME280;26327;42.550;23.120;2023-04-06T18:40:50;92408.41;;;2.57;nan
39681;BME280;26327;42.550;23.120;2023-04-06T18:43:16;92484.22;;;2.97;nan
39681;BME280;26327;42.550;23.120;2023-04-06T18:45:41;92488.81;;;2.93;nan
39681;BME280;26327;42.550;23.120;2023-04-06T18:48:09;92502.41;;;3.03;nan
39681;BME280;26327;42.550;23.120;2023-04-06T18:50:35;92459.00;;;2.92;nan
39681;BME280;26327;42.550;23.120;2023-04-06T18:53:01;92437.13;;;2.61;nan
39681;BME280;26327;42.550;23.120;2023-04-06T18:55:26;92375.72;;;2.41;nan
39681;BME280;26327;42.550;23.120;2023-04-06T18:57:52;92492.38;;;3.10;nan
39681;BME280;26327;42.550;23.120;2023-04-06T19:00:18;92454.91;;;2.72;nan
39681;BME280;26327;42.550;23.120;2023-04-06T19:02:44;92444.16;;;2.59;nan
39681;BME280;26327;42.550;23.120;2023-04-06T19:05:11;92482.75;;;2.94;nan
39681;BME280;26327;42.550;23.120;2023-04-06T19:07:37;92491.78;;;3.16;nan
39681;BME280;26327;42.550;23.120;2023-04-06T19:10:04;92488.47;;;3.06;nan
39681;BME280;26327;42.550;23.120;2023-04-06T19:12:34;92414.44;;;2.66;nan
39681;BME280;26327;42.550;23.120;2023-04-06T19:15:03;92421.97;;;2.67;nan
39681;BME280;26327;42.550;23.120;2023-04-06T19:17:29;92435.53;;;2.60;nan
39681;BME280;26327;42.550;23.120;2023-04-06T19:19:56;92476.06;;;3.01;nan
39681;BME280;26327;42.550;23.120;2023-04-06T19:22:25;92416.34;;;2.81;nan
39681;BME280;26327;42.550;23.120;2023-04-06T19:24:50;92479.13;;;3.32;nan
39681;BME280;26327;42.550;23.120;2023-04-06T19:27:16;92450.94;;;3.05;nan
39681;BME280;26327;42.550;23.120;2023-04-06T19:29:42;92450.47;;;2.92;nan
39681;BME280;26327;42.550;23.120;2023-04-06T19:32:07;92444.50;;;2.73;nan
39681;BME280;26327;42.550;23.120;2023-04-06T19:34:35;92513.84;;;2.81;nan
39681;BME280;26327;42.550;23.120;2023-04-06T19:37:01;92492.63;;;2.89;nan
39681;BME280;26327;42.550;23.120;2023-04-06T19:39:27;92422.81;;;2.40;nan
39681;BME280;26327;42.550;23.120;2023-04-06T19:41:52;92487.47;;;2.62;nan
39681;BME280;26327;42.550;23.120;2023-04-06T19:44:18;92500.69;;;2.67;nan
39681;BME280;26327;42.550;23.120;2023-04-06T19:46:43;92512.66;;;2.76;nan
39681;BME280;26327;42.550;23.120;2023-04-06T19:49:11;92512.06;;;2.92;nan
39681;BME280;26327;42.550;23.120;2023-04-06T19:51:36;92522.72;;;3.14;nan
39681;BME280;26327;42.550;23.120;2023-04-06T19:54:03;92384.00;;;1.98;nan
39681;BME280;26327;42.550;23.120;2023-04-06T19:56:28;92454.25;;;2.33;nan
39681;BME280;26327;42.550;23.120;2023-04-06T19:58:55;92515.69;;;2.62;nan
39681;BME280;26327;42.550;23.120;2023-04-06T20:01:21;92443.72;;;2.36;nan
39681;BME280;26327;42.550;23.120;2023-04-06T20:03:47;92496.78;;;2.63;nan
39681;BME280;26327;42.550;23.120;2023-04-06T20:06:13;92479.47;;;2.47;nan
39681;BME280;26327;42.550;23.120;2023-04-06T20:08:39;92520.75;;;2.44;nan
39681;BME280;26327;42.550;23.120;2023-04-06T20:11:05;92524.00;;;2.36;nan
39681;BME280;26327;42.550;23.120;2023-04-06T20:13:34;92462.03;;;2.13;nan
39681;BME280;26327;42.550;23.120;2023-04-06T20:16:00;92533.78;;;2.60;nan
39681;BME280;26327;42.550;23.120;2023-04-06T20:18:26;92456.13;;;2.03;nan
39681;BME280;26327;42.550;23.120;2023-04-06T20:20:51;92536.94;;;2.81;nan
39681;BME280;26327;42.550;23.120;2023-04-06T20:23:18;92549.16;;;2.70;nan
39681;BME280;26327;42.550;23.120;2023-04-06T20:25:45;92546.19;;;2.65;nan
39681;BME280;26327;42.550;23.120;2023-04-06T20:28:11;92459.34;;;2.05;nan
39681;BME280;26327;42.550;23.120;2023-04-06T20:30:36;92514.88;;;2.61;nan
39681;BME280;26327;42.550;23.120;2023-04-06T20:33:02;92536.84;;;2.73;nan
39681;BME280;26327;42.550;23.120;2023-04-06T20:35:27;92530.97;;;2.91;nan
39681;BME280;26327;42.550;23.120;2023-04-06T20:37:53;92542.06;;;2.81;nan
39681;BME280;26327;42.550;23.120;2023-04-06T20:40:19;92531.84;;;2.44;nan
39681;BME280;26327;42.550;23.120;2023-04-06T20:42:44;92497.09;;;2.13;nan
39681;BME280;26327;42.550;23.120;2023-04-06T20:45:11;92552.91;;;2.29;nan
39681;BME280;26327;42.550;23.120;2023-04-06T20:47:37;92524.25;;;1.96;nan
39681;BME280;26327;42.550;23.120;2023-04-06T20:50:04;92551.19;;;2.10;nan
39681;BME280;26327;42.550;23.120;2023-04-06T20:52:29;92460.66;;;1.43;nan
39681;BME280;26327;42.550;23.120;2023-04-06T20:54:55;92477.09;;;1.50;nan
39681;BME280;26327;42.550;23.120;2023-04-06T20:57:21;92546.75;;;2.02;nan
39681;BME280;26327;42.550;23.120;2023-04-06T20:59:47;92547.56;;;1.74;nan
39681;BME280;26327;42.550;23.120;2023-04-06T21:02:13;92543.53;;;1.42;nan
39681;BME280;26327;42.550;23.120;2023-04-06T21:04:38;92547.84;;;1.51;nan
39681;BME280;26327;42.550;23.120;2023-04-06T21:07:05;92515.38;;;1.62;nan
39681;BME280;26327;42.550;23.120;2023-04-06T21:09:34;92551.47;;;1.97;nan
39681;BME280;26327;42.550;23.120;2023-04-06T21:12:00;92555.78;;;1.97;nan
39681;BME280;26327;42.550;23.120;2023-04-06T21:14:25;92545.41;;;1.69;nan
39681;BME280;26327;42.550;23.120;2023-04-06T21:16:51;92552.28;;;1.69;nan
39681;BME280;26327;42.550;23.120;2023-04-06T21:19:17;92542.00;;;1.30;nan
39681;BME280;26327;42.550;23.120;2023-04-06T21:21:43;92472.25;;;1.09;nan
39681;BME280;26327;42.550;23.120;2023-04-06T21:24:08;92525.97;;;1.28;nan
39681;BME280;26327;42.550;23.120;2023-04-06T21:26:34;92465.78;;;1.24;nan